Latest Weather Observations for Noonamah

IDD60801

Issued at 9:35 am CST Thursday 2 October 2014 (issued every 30 minutes, with the page automatically refreshed every 10 minutes)

About weather observations | Map of weather stations | Latest weather observations for NT | Other Formats
Station Details ID: 014314 Name: NOONAMAH AIRSTRIP Lat: -12.61 Lon: 131.05 Height: 17.5 m
Data from the previous 72 hours. | See also: Recent months for locations in Northern Territory
Date/Time
CST
Temp
°C
App
Temp
°C
Dew
Point
Rel
Hum
%
Delta-T
°C
Wind Press
QNH
hPa
Press
MSL
hPa
Rain
since 9 am
mm
Dir
 
Spd
km/h
Gust
km/h
Spd
kts
Gust
kts
02/09:30am 29.6 32.1 19.9 56 6.4 S 6 11 3 6 1013.8 1013.6 0.0
02/09:00am 28.2 31.4 20.5 63 5.1 SE 4 9 2 5 1014.0 1013.8 0.0
02/08:30am 27.3 30.3 20.9 68 4.2 SE 6 7 3 4 1013.9 1013.7 0.0
02/08:00am 25.9 29.3 20.9 74 3.3 ESE 4 6 2 3 1013.6 1013.4 0.0
02/07:30am 23.5 26.7 20.6 84 1.9 ESE 4 4 2 2 1013.3 1013.1 0.0
02/07:00am 21.4 24.4 20.0 92 0.9 ESE 4 6 2 3 1013.0 1012.8 0.0
02/06:30am 20.4 23.6 18.9 91 0.9 CALM 0 0 0 0 1012.4 1012.2 0.0
02/06:00am 20.5 23.5 19.2 92 0.8 E 2 6 1 3 1011.9 1011.7 0.0
02/05:30am 20.8 24.3 19.5 92 0.8 CALM 0 4 0 2 1011.4 1011.2 0.0
02/05:00am 20.5 23.6 18.6 89 1.2 CALM 0 2 0 1 1011.0 1010.8 0.0
02/04:30am 20.9 24.1 18.8 88 1.3 CALM 0 0 0 0 1010.9 1010.7 0.0
02/04:00am 21.7 25.0 19.1 85 1.6 CALM 0 0 0 0 1011.0 1010.8 0.0
02/03:30am 22.8 26.0 20.5 87 1.5 WSW 4 6 2 3 1011.0 1010.8 0.0
02/03:00am 22.2 24.9 20.3 89 1.2 W 6 7 3 4 1011.0 1010.8 0.0
02/02:30am 22.9 26.3 20.2 85 1.7 NNW 2 6 1 3 1011.4 1011.2 0.0
02/02:00am 22.8 26.1 20.0 84 1.8 NNE 2 4 1 2 1011.6 1011.4 0.0
02/01:30am 23.0 25.8 19.6 81 2.2 N 4 4 2 2 1012.0 1011.8 0.0
02/01:00am 24.2 27.1 19.9 77 2.8 E 4 4 2 2 1012.5 1012.3 0.0
02/12:30am 23.8 27.2 20.1 80 2.4 NE 2 2 1 1 1012.7 1012.5 0.0
02/12:00am 23.5 27.0 19.6 79 2.5 CALM 0 6 0 3 1012.7 1012.5 0.0
 
Date/Time
CST
Temp
°C
App
Temp
°C
Dew
Point
Rel
Hum
%
Delta-T
°C
Wind Press
QNH
hPa
Press
MSL
hPa
Rain
since 9 am
mm
Dir
 
Spd
km/h
Gust
km/h
Spd
kts
Gust
kts
01/11:30pm 23.9 27.6 20.0 79 2.5 CALM 0 0 0 0 1012.7 1012.5 0.0
01/11:00pm 24.2 27.6 19.3 74 3.1 CALM 0 0 0 0 1012.7 1012.5 0.0
01/10:30pm 25.4 28.3 19.8 71 3.6 SE 4 6 2 3 1012.4 1012.2 0.0
01/10:00pm 24.6 28.3 19.9 75 3.0 CALM 0 0 0 0 1012.4 1012.2 0.0
01/09:30pm 25.4 28.8 19.3 69 3.9 CALM 0 0 0 0 1012.2 1012.0 0.0
01/09:00pm 26.4 29.5 20.3 69 4.0 E 4 4 2 2 1011.9 1011.7 0.0
01/08:30pm 26.7 30.1 19.3 64 4.8 CALM 0 0 0 0 1011.6 1011.4 0.0
01/08:00pm 27.1 30.4 20.0 65 4.6 NNW 2 4 1 2 1011.1 1010.9 0.0
01/07:30pm 27.7 30.3 20.0 63 5.0 WNW 6 9 3 5 1010.5 1010.3 0.0
01/07:00pm 28.2 30.2 20.0 61 5.4 WNW 9 15 5 8 1009.9 1009.7 0.0
01/06:30pm 29.1 30.7 20.0 58 6.0 WNW 11 17 6 9 1009.5 1009.3 0.0
01/06:00pm 29.9 30.1 19.3 53 6.9 WNW 17 26 9 14 1008.9 1008.7 0.0
01/05:30pm 30.8 31.3 20.1 53 7.1 W 17 30 9 16 1008.4 1008.2 0.0
01/05:00pm 31.8 32.2 19.8 49 7.9 W 17 24 9 13 1008.0 1007.8 0.0
01/04:30pm 33.7 34.7 17.8 38 10.3 WNW 9 13 5 7 1007.9 1007.7 0.0
01/04:00pm 33.2 34.6 17.8 40 9.9 NW 7 15 4 8 1008.2 1008.0 0.0
01/03:30pm 33.1 33.9 18.1 41 9.7 NNW 11 22 6 12 1008.3 1008.1 0.0
01/03:00pm 33.2 33.2 18.2 41 9.7 NW 15 24 8 13 1008.6 1008.4 0.0
01/02:30pm 34.1 36.0 19.7 42 9.6 NNW 9 15 5 8 1009.2 1009.0 0.0
01/02:00pm 35.1 35.4 14.9 29 12.6 E 7 20 4 11 1009.6 1009.4 0.0
01/01:30pm 35.4 35.0 15.2 30 12.6 SSE 11 22 6 12 1010.3 1010.1 0.0
01/01:00pm 34.1 34.8 16.0 34 11.4 E 7 19 4 10 1011.1 1010.9 0.0
01/12:30pm 34.4 34.6 15.8 33 11.7 ENE 9 17 5 9 1011.8 1011.6 0.0
01/12:00pm 33.1 32.3 16.0 35 10.7 E 15 24 8 13 1012.7 1012.5 0.0
01/11:30am 32.2 31.2 15.7 37 10.3 NE 15 30 8 16 1013.2 1013.0 0.0
01/11:00am 32.1 33.4 17.6 42 9.3 ENE 7 19 4 10 1013.8 1013.6 0.0
01/10:30am 31.3 32.5 18.3 46 8.4 NE 9 19 5 10 1014.1 1013.9 0.0
01/10:00am 30.3 32.4 19.3 51 7.2 E 7 15 4 8 1014.2 1014.0 0.0
01/09:30am 28.9 31.0 20.1 59 5.8 ENE 9 17 5 9 1014.4 1014.2 0.0
01/09:00am 28.7 31.5 20.4 60 5.5 ESE 6 13 3 7 1014.3 1014.2 0.0
01/08:30am 27.3 30.3 20.9 68 4.2 SSE 6 9 3 5 1014.1 1014.0 0.0
01/08:00am 26.2 30.0 21.0 73 3.4 S 2 4 1 2 1013.7 1013.6 0.0
01/07:30am 24.1 28.1 20.6 81 2.3 CALM 0 0 0 0 1013.4 1013.3 0.0
01/07:00am 22.4 25.5 20.3 88 1.4 SW 4 4 2 2 1012.7 1012.6 0.0
01/06:30am 22.4 25.3 20.7 90 1.1 SSW 6 6 3 3 1012.5 1012.4 0.0
01/06:00am 22.5 25.3 20.4 88 1.4 SW 6 7 3 4 1012.4 1012.3 0.0
01/05:30am 23.1 27.0 20.4 85 1.8 CALM 0 0 0 0 1012.2 1012.0 0.0
01/05:00am 23.7 27.3 20.6 83 2.0 ENE 2 4 1 2 1011.9 1011.7 0.0
01/04:30am 24.3 27.4 21.0 82 2.2 E 6 7 3 4 1011.7 1011.5 0.0
01/04:00am 24.6 27.4 20.9 80 2.4 ENE 7 9 4 5 1011.5 1011.3 0.0
01/03:30am 24.7 27.7 20.8 79 2.6 NE 6 7 3 4 1011.7 1011.5 0.0
01/03:00am 25.5 28.6 21.0 76 3.0 ENE 6 7 3 4 1011.8 1011.6 0.0
01/02:30am 26.3 30.0 21.5 75 3.2 NE 4 6 2 3 1012.2 1012.0 0.0
01/02:00am 26.3 30.1 21.7 76 3.1 NNE 4 6 2 3 1012.2 1012.0 0.0
01/01:30am 26.3 30.0 22.2 78 2.8 N 6 7 3 4 1012.4 1012.3 0.0
01/01:00am 26.3 29.6 21.9 77 2.9 NNE 7 9 4 5 1012.4 1012.3 0.0
01/12:30am 26.5 29.9 21.7 75 3.2 NNE 6 11 3 6 1012.5 1012.4 0.0
01/12:00am 26.6 30.0 21.6 74 3.3 NE 6 9 3 5 1012.6 1012.5 0.0
 
Date/Time
CST
Temp
°C
App
Temp
°C
Dew
Point
Rel
Hum
%
Delta-T
°C
Wind Press
QNH
hPa
Press
MSL
hPa
Rain
since 9 am
mm
Dir
 
Spd
km/h
Gust
km/h
Spd
kts
Gust
kts
30/11:30pm 26.7 29.8 21.5 73 3.5 ENE 7 11 4 6 1013.0 1012.9 0.0
30/11:00pm 26.6 30.0 20.9 71 3.8 ENE 4 7 2 4 1012.8 1012.7 0.0
30/10:30pm 26.1 28.8 19.5 67 4.3 NNE 4 6 2 3 1012.8 1012.7 0.0
30/10:00pm 26.7 29.2 19.1 63 4.9 ENE 4 6 2 3 1012.6 1012.5 0.0
30/09:30pm 27.1 29.4 19.4 62 5.0 NNE 6 11 3 6 1012.2 1012.0 0.0
30/09:00pm 26.8 28.6 18.4 60 5.4 NNE 6 7 3 4 1012.0 1011.8 0.0
30/08:30pm 27.1 29.2 18.1 58 5.7 N 4 9 2 5 1011.6 1011.4 0.0
30/08:00pm 28.1 31.3 18.8 57 6.0 CALM 0 2 0 1 1011.1 1010.9 0.0
30/07:30pm 29.1 31.2 18.2 51 7.0 N 4 6 2 3 1010.7 1010.5 0.0
30/07:00pm 29.9 32.1 18.3 49 7.4 N 4 7 2 4 1010.1 1009.9 0.0
30/06:30pm 30.8 32.2 17.8 45 8.3 NNE 7 13 4 7 1009.3 1009.1 0.0
30/06:00pm 31.8 32.5 18.0 43 8.9 NE 11 17 6 9 1008.8 1008.6 0.0
30/05:30pm 32.3 32.5 17.7 41 9.4 NE 13 19 7 10 1008.4 1008.2 0.0
30/05:00pm 33.5 34.2 18.0 39 10.0 NE 11 19 6 10 1008.4 1008.2 0.0
30/04:30pm 34.1 34.5 18.2 39 10.3 ENE 13 20 7 11 1008.4 1008.2 0.0
30/04:00pm 33.4 34.5 18.0 40 10.0 NE 9 19 5 10 1008.7 1008.5 0.0
30/03:30pm 33.1 34.6 18.8 42 9.4 ENE 9 17 5 9 1009.1 1008.9 0.0
30/03:00pm 33.3 34.1 19.0 42 9.4 ENE 13 19 7 10 1009.3 1009.1 0.0
30/02:30pm 33.2 34.0 18.2 41 9.7 NE 11 19 6 10 1009.7 1009.5 0.0
30/02:00pm 34.0 35.1 18.1 39 10.3 NE 9 19 5 10 1010.1 1009.9 0.0
30/01:30pm 33.8 33.5 18.3 39 10.1 ENE 17 24 9 13 1010.6 1010.4 0.0
30/01:00pm 33.5 33.7 17.6 38 10.2 ENE 13 26 7 14 1011.3 1011.1 0.0
30/12:30pm 34.0 33.9 15.9 33 11.4 E 11 22 6 12 1011.6 1011.4 0.0
30/12:00pm 33.8 32.8 16.6 35 10.9 E 17 28 9 15 1012.3 1012.2 0.0
30/11:30am 33.0 33.2 17.6 40 9.9 ENE 13 24 7 13 1012.8 1012.7 0.0
30/11:00am 31.6 31.7 17.5 43 9.0 NNE 13 22 7 12 1013.2 1013.1 0.0
30/10:30am 31.1 32.2 18.1 46 8.4 E 9 19 5 10 1013.7 1013.6 0.0
30/10:00am 30.8 33.0 19.5 51 7.4 E 7 13 4 7 1014.0 1013.9 0.0
30/09:30am 29.5 32.0 19.8 56 6.4 NE 6 11 3 6 1014.3 1014.2 0.0
30/09:00am 28.6 31.5 20.6 62 5.3 E 6 9 3 5 1014.4 1014.3 0.0
30/08:30am 26.9 30.1 20.5 68 4.2 NNE 4 7 2 4 1014.4 1014.3 0.0
30/08:00am 26.0 28.9 20.6 72 3.5 E 6 6 3 3 1014.0 1013.9 0.0
30/07:30am 23.2 26.7 19.6 80 2.3 CALM 0 0 0 0 1013.8 1013.7 0.0
30/07:00am 21.7 24.6 19.1 85 1.6 ESE 2 4 1 2 1013.6 1013.5 0.0
30/06:30am 21.1 24.2 18.7 86 1.5 CALM 0 0 0 0 1013.4 1013.3 0.0
30/06:00am 21.9 25.1 18.9 83 1.9 CALM 0 4 0 2 1013.2 1013.1 0.0
30/05:30am 21.8 24.9 18.6 82 2.0 CALM 0 0 0 0 1012.8 1012.7 0.0
30/05:00am 22.6 25.9 19.0 80 2.3 CALM 0 4 0 2 1012.6 1012.5 0.0
30/04:30am 22.5 24.9 18.7 79 2.4 NE 4 9 2 5 1012.5 1012.4 0.0
30/04:00am 22.7 25.9 18.9 79 2.4 CALM 0 4 0 2 1012.2 1012.0 0.0
30/03:30am 21.3 24.0 17.7 80 2.2 CALM 0 0 0 0 1012.1 1011.9 0.0
30/03:00am 21.1 23.9 17.9 82 2.0 CALM 0 0 0 0 1011.7 1011.5 0.0
30/02:30am 21.5 24.3 17.9 80 2.2 CALM 0 0 0 0 1011.7 1011.5 0.0
30/02:00am 22.1 25.1 18.5 80 2.3 CALM 0 0 0 0 1011.7 1011.5 0.0
30/01:30am 22.5 25.1 18.5 78 2.5 SSE 2 6 1 3 1012.0 1011.8 0.0
30/01:00am 22.6 25.8 18.8 79 2.4 CALM 0 0 0 0 1012.2 1012.0 0.0
30/12:30am 22.7 25.8 18.7 78 2.5 CALM 0 0 0 0 1012.2 1012.0 0.0
30/12:00am 22.7 25.5 18.0 75 2.9 CALM 0 0 0 0 1012.4 1012.3 0.0
 
Date/Time
CST
Temp
°C
App
Temp
°C
Dew
Point
Rel
Hum
%
Delta-T
°C
Wind Press
QNH
hPa
Press
MSL
hPa
Rain
since 9 am
mm
Dir
 
Spd
km/h
Gust
km/h
Spd
kts
Gust
kts
29/11:30pm 23.2 25.8 18.3 74 3.1 NNE 2 4 1 2 1012.5 1012.4 0.0
29/11:00pm 23.4 26.3 18.1 72 3.3 CALM 0 0 0 0 1012.3 1012.2 0.0
29/10:30pm 24.0 27.1 18.6 72 3.4 CALM 0 0 0 0 1012.2 1012.0 0.0
29/10:00pm 24.4 26.9 18.1 68 4.0 WNW 2 2 1 1 1011.9 1011.7 0.0
29/09:30pm 25.1 27.9 18.8 68 4.0 NW 2 4 1 2 1011.7 1011.5 0.0
29/09:00pm 26.4 28.7 18.5 62 5.0 N 4 4 2 2 1011.5 1011.3 0.0
29/08:30pm 27.3 29.1 18.3 58 5.7 W 6 9 3 5 1011.1 1010.9 0.0
29/08:00pm 28.1 30.3 19.1 58 5.8 W 6 9 3 5 1010.6 1010.4 0.0
29/07:30pm 29.2 29.8 15.3 42 8.5 NNW 6 7 3 4 1010.1 1009.9 0.0
29/07:00pm 30.1 30.3 14.6 39 9.4 N 7 11 4 6 1009.5 1009.3 0.0
29/06:30pm 31.4 31.0 14.1 35 10.5 N 9 15 5 8 1009.1 1008.9 0.0
29/06:00pm 32.3 31.9 14.0 33 11.1 NNE 9 13 5 7 1008.8 1008.6 0.0
29/05:30pm 33.0 32.4 13.6 31 11.8 NNE 9 15 5 8 1008.5 1008.3 0.0
29/05:00pm 33.7 33.5 13.7 30 12.2 NNE 7 19 4 10 1008.2 1008.0 0.0
29/04:30pm 33.9 34.2 14.4 31 12.0 WSW 6 9 3 5 1008.3 1008.1 0.0
29/04:00pm 34.1 33.9 14.6 31 12.0 NNW 9 17 5 9 1008.4 1008.2 0.0
29/03:30pm 33.3 34.2 16.6 36 10.6 NNW 7 19 4 10 1008.7 1008.5 0.0
29/03:00pm 33.3 34.2 17.5 39 10.2 NNW 9 30 5 16 1009.1 1008.9 0.0
29/02:30pm 33.1 34.5 17.3 39 10.1 NW 6 11 3 6 1009.4 1009.2 0.0
29/02:00pm 33.5 34.1 17.6 38 10.2 NW 11 20 6 11 1009.8 1009.6 0.0
29/01:30pm 32.5 33.8 17.5 40 9.6 NW 7 17 4 9 1010.5 1010.3 0.0
29/01:00pm 32.8 33.6 17.4 39 9.9 W 9 17 5 9 1011.0 1010.8 0.0
29/12:30pm 32.8 33.7 16.6 38 10.3 ENE 7 17 4 9 1011.6 1011.4 0.0
29/12:00pm 33.3 34.0 17.1 38 10.3 ENE 9 17 5 9 1012.3 1012.2 0.0
29/11:30am 32.3 32.8 16.6 39 9.9 NE 9 19 5 10 1012.8 1012.7 0.0
29/11:00am 31.0 32.5 19.0 48 7.8 NE 9 19 5 10 1013.2 1013.1 0.0
29/10:30am 30.7 32.2 18.8 49 7.7 NE 9 13 5 7 1013.3 1013.2 0.0
29/10:00am 30.5 31.9 17.9 47 8.1 N 7 13 4 7 1013.4 1013.3 0.0

Other Formats:

Comma delimited format used in spreadsheet applications
http://www.bom.gov.au/fwo/IDD60801/IDD60801.94105.axf

JavaScript Object Notation format (JSON) in row-major order
http://www.bom.gov.au/fwo/IDD60801/IDD60801.94105.json